createdAt,value
2022-11-23T00:01:36.428Z,0.70
2022-11-23T00:04:07.242Z,0.88
2022-11-23T00:06:35.839Z,0.90
2022-11-23T00:09:03.821Z,0.70
2022-11-23T00:11:34.779Z,0.70
2022-11-23T00:14:04.592Z,0.70
2022-11-23T00:16:33.551Z,0.95
2022-11-23T00:19:03.191Z,0.85
2022-11-23T00:21:33.157Z,0.80
2022-11-23T00:24:02.213Z,0.90
2022-11-23T00:26:30.351Z,0.80
2022-11-23T00:29:00.704Z,0.75
2022-11-23T00:31:30.576Z,0.75
2022-11-23T00:36:28.584Z,0.85
2022-11-23T00:38:58.352Z,0.70
2022-11-23T00:41:28.734Z,0.82
2022-11-23T00:43:57.318Z,0.80
2022-11-23T00:46:27.308Z,0.80
2022-11-23T00:48:58.482Z,0.82
2022-11-23T00:51:29.481Z,0.90
2022-11-23T00:53:57.622Z,1.08
2022-11-23T00:56:27.479Z,0.70
2022-11-23T00:58:57.271Z,0.80
2022-11-23T01:01:27.730Z,0.90
2022-11-23T01:04:00.373Z,0.90
2022-11-23T01:06:33.152Z,0.90
2022-11-23T01:09:02.569Z,1.17
2022-11-23T01:11:33.060Z,0.80
2022-11-23T01:14:02.566Z,0.90
2022-11-23T01:16:32.981Z,1.25
2022-11-23T01:19:05.613Z,1.08
2022-11-23T01:21:35.037Z,1.33
2022-11-23T01:24:06.516Z,1.58
2022-11-23T01:26:34.941Z,1.08
2022-11-23T01:29:02.901Z,1.00
2022-11-23T01:31:32.694Z,0.95
2022-11-23T01:34:03.423Z,0.87
2022-11-23T01:36:36.589Z,1.00
2022-11-23T01:39:06.536Z,1.00
2022-11-23T01:41:40.394Z,1.13
2022-11-23T01:44:25.054Z,1.23
2022-11-23T01:46:59.129Z,0.85
2022-11-23T01:49:31.290Z,0.93
2022-11-23T01:52:06.562Z,0.98
2022-11-23T01:54:38.817Z,1.83
2022-11-23T01:57:11.543Z,1.10
2022-11-23T01:59:40.009Z,1.20
2022-11-23T02:02:08.709Z,1.05
2022-11-23T02:04:45.075Z,1.27
2022-11-23T02:07:17.268Z,1.05
2022-11-23T02:09:47.432Z,1.17
2022-11-23T02:12:15.751Z,1.17
2022-11-23T02:14:45.970Z,1.33
2022-11-23T02:17:15.099Z,1.30
2022-11-23T02:19:55.955Z,1.65
2022-11-23T02:22:32.682Z,1.27
2022-11-23T02:25:03.497Z,1.33
2022-11-23T02:27:33.855Z,1.08
2022-11-23T02:32:31.897Z,0.82
2022-11-23T02:37:28.486Z,1.30
2022-11-23T02:40:00.088Z,1.60
2022-11-23T02:42:30.705Z,1.10
2022-11-23T02:45:10.474Z,1.02
2022-11-23T02:47:38.410Z,0.95
2022-11-23T02:50:06.976Z,1.00
2022-11-23T02:52:35.950Z,1.30
2022-11-23T02:55:03.908Z,1.20
2022-11-23T02:57:32.317Z,1.05
2022-11-23T03:00:02.525Z,0.80
2022-11-23T03:02:30.881Z,1.00
2022-11-23T03:04:58.811Z,1.20
2022-11-23T03:07:27.639Z,0.90
2022-11-23T03:09:55.567Z,1.00
2022-11-23T03:12:24.065Z,1.10
2022-11-23T03:14:52.651Z,1.20
2022-11-23T03:17:22.888Z,1.00
2022-11-23T03:22:20.698Z,0.77
2022-11-23T03:24:48.666Z,0.63
2022-11-23T03:27:18.003Z,0.82
2022-11-23T03:29:47.709Z,0.80
2022-11-23T03:32:20.407Z,0.65
2022-11-23T03:34:53.860Z,0.90
2022-11-23T03:37:23.098Z,1.15
2022-11-23T03:39:51.463Z,0.70
2022-11-23T03:42:25.487Z,1.27
2022-11-23T03:44:53.874Z,0.88
2022-11-23T03:47:22.296Z,1.08
2022-11-23T03:49:50.292Z,0.80
2022-11-23T03:52:19.726Z,0.98
2022-11-23T03:54:49.263Z,0.70
2022-11-23T03:57:17.282Z,0.90
2022-11-23T03:59:46.383Z,0.88
2022-11-23T04:02:15.701Z,1.10
2022-11-23T04:04:51.734Z,0.68
2022-11-23T04:07:45.687Z,1.10
2022-11-23T04:10:13.900Z,0.98
2022-11-23T04:13:00.339Z,1.00
2022-11-23T04:15:28.957Z,1.03
2022-11-23T04:17:57.480Z,1.00
2022-11-23T04:20:25.992Z,1.10
2022-11-23T04:22:55.364Z,1.20
2022-11-23T04:25:24.934Z,1.10
2022-11-23T04:27:53.957Z,1.23
2022-11-23T04:30:22.192Z,1.05
2022-11-23T04:32:50.327Z,1.08
2022-11-23T04:35:20.150Z,1.20
2022-11-23T04:37:50.878Z,1.45
2022-11-23T04:40:21.534Z,1.30
2022-11-23T04:43:01.567Z,0.88
2022-11-23T04:45:34.593Z,1.30
2022-11-23T04:48:07.594Z,1.15
2022-11-23T04:50:40.593Z,1.35
2022-11-23T04:53:11.903Z,1.40
2022-11-23T04:55:49.380Z,1.13
2022-11-23T04:58:18.407Z,1.55
2022-11-23T05:00:51.877Z,1.05
2022-11-23T05:03:20.556Z,1.20
2022-11-23T05:05:48.465Z,1.27
2022-11-23T05:08:17.407Z,1.10
2022-11-23T05:10:58.565Z,1.08
2022-11-23T05:13:27.877Z,1.08
2022-11-23T05:15:55.963Z,1.10
2022-11-23T05:18:29.412Z,1.10
2022-11-23T05:20:57.422Z,1.00
2022-11-23T05:23:25.397Z,1.10
2022-11-23T05:25:55.568Z,1.00
2022-11-23T05:28:41.423Z,1.23
2022-11-23T05:31:15.511Z,0.98
2022-11-23T05:33:46.374Z,0.88
2022-11-23T05:36:17.450Z,0.98
2022-11-23T05:38:46.515Z,1.20
2022-11-23T05:41:26.635Z,1.23
2022-11-23T05:44:00.202Z,1.48
2022-11-23T05:46:31.012Z,0.98
2022-11-23T05:48:59.260Z,1.08
2022-11-23T05:51:32.574Z,1.00
2022-11-23T05:54:03.313Z,0.70
2022-11-23T05:56:40.682Z,1.25
2022-11-23T05:59:19.334Z,1.13
2022-11-23T06:01:53.781Z,1.15
2022-11-23T06:04:30.671Z,1.20
2022-11-23T06:09:39.472Z,1.40
2022-11-23T06:12:11.279Z,1.10
2022-11-23T06:14:41.643Z,1.10
2022-11-23T06:17:09.888Z,1.20
2022-11-23T06:19:43.694Z,1.10
2022-11-23T06:22:13.260Z,1.10
2022-11-23T06:25:03.318Z,1.23
2022-11-23T06:27:41.072Z,1.85
2022-11-23T06:32:51.678Z,1.38
2022-11-23T06:35:21.708Z,1.60
2022-11-23T06:37:51.952Z,1.38
2022-11-23T06:40:20.635Z,1.65
2022-11-23T06:42:48.982Z,1.48
2022-11-23T06:45:27.799Z,3.28
2022-11-23T06:47:58.757Z,1.60
2022-11-23T06:50:28.599Z,1.60
2022-11-23T06:52:57.417Z,1.90
2022-11-23T06:55:38.575Z,2.97
2022-11-23T06:58:08.112Z,2.50
2022-11-23T07:00:39.249Z,1.42
2022-11-23T07:05:43.162Z,1.50
2022-11-23T07:08:11.350Z,1.85
2022-11-23T07:10:40.150Z,1.42
2022-11-23T07:13:12.157Z,2.17
2022-11-23T07:15:43.600Z,1.15
2022-11-23T07:18:13.651Z,1.50
2022-11-23T07:20:48.691Z,1.45
2022-11-23T07:23:17.120Z,1.80
2022-11-23T07:25:45.490Z,2.15
2022-11-23T07:28:14.772Z,1.63
2022-11-23T07:30:45.056Z,1.77
2022-11-23T07:33:14.575Z,1.90
2022-11-23T07:35:44.000Z,1.98
2022-11-23T07:38:13.949Z,1.70
2022-11-23T07:40:43.767Z,1.83
2022-11-23T07:45:53.466Z,1.90
2022-11-23T07:48:22.741Z,1.70
2022-11-23T07:50:53.759Z,1.95
2022-11-23T07:53:23.672Z,1.85
2022-11-23T07:55:56.656Z,2.13
2022-11-23T07:58:24.906Z,2.22
2022-11-23T08:00:54.612Z,1.88
2022-11-23T08:03:28.426Z,2.10
2022-11-23T08:05:57.544Z,2.00
2022-11-23T08:08:26.444Z,1.60
2022-11-23T08:10:54.870Z,1.85
2022-11-23T08:13:24.119Z,1.50
2022-11-23T08:15:55.289Z,1.75
2022-11-23T08:18:25.965Z,1.38
2022-11-23T08:20:55.196Z,1.50
2022-11-23T08:23:23.529Z,1.63
2022-11-23T08:25:52.370Z,1.93
2022-11-23T08:28:21.077Z,1.50
2022-11-23T08:30:50.029Z,2.03
2022-11-23T08:33:21.079Z,1.70
2022-11-23T08:35:51.483Z,1.92
2022-11-23T08:38:20.601Z,1.67
2022-11-23T08:40:49.996Z,2.15
2022-11-23T08:43:18.387Z,2.08
2022-11-23T08:45:47.511Z,1.50
2022-11-23T08:48:16.074Z,1.45
2022-11-23T08:50:44.548Z,1.98
2022-11-23T08:53:15.105Z,1.75
2022-11-23T08:55:43.390Z,1.52
2022-11-23T08:58:13.627Z,1.50
2022-11-23T09:00:42.170Z,1.80
2022-11-23T09:03:10.650Z,1.50
2022-11-23T09:05:40.293Z,1.43
2022-11-23T09:08:09.104Z,1.37
2022-11-23T09:10:41.043Z,1.73
2022-11-23T09:13:09.360Z,1.30
2022-11-23T09:15:37.544Z,1.40
2022-11-23T09:18:06.590Z,1.38
2022-11-23T09:20:35.016Z,1.38
2022-11-23T09:23:03.613Z,1.60
2022-11-23T09:25:31.969Z,1.15
2022-11-23T09:28:01.772Z,1.30
2022-11-23T09:30:30.784Z,1.00
2022-11-23T09:32:59.371Z,1.50
2022-11-23T09:35:28.624Z,1.07
2022-11-23T09:37:58.723Z,1.10
2022-11-23T09:40:33.882Z,0.98
2022-11-23T09:43:32.438Z,1.20
2022-11-23T09:46:08.602Z,1.10
2022-11-23T09:48:51.369Z,1.00
2022-11-23T09:51:20.769Z,1.30
2022-11-23T09:53:53.137Z,1.00
2022-11-23T09:56:24.358Z,1.05
2022-11-23T09:58:58.786Z,1.27
2022-11-23T10:01:28.077Z,1.38
2022-11-23T10:03:56.614Z,1.17
2022-11-23T10:06:27.845Z,1.10
2022-11-23T10:09:13.835Z,1.25
2022-11-23T10:12:05.769Z,0.88
2022-11-23T10:14:48.094Z,0.93
2022-11-23T10:17:22.701Z,1.05
2022-11-23T10:20:04.329Z,1.67
2022-11-23T10:22:41.441Z,0.75
2022-11-23T10:25:17.054Z,0.90
2022-11-23T10:28:04.409Z,1.08
2022-11-23T10:30:34.179Z,0.90
2022-11-23T10:33:15.583Z,1.00
2022-11-23T10:35:43.844Z,0.90
2022-11-23T10:38:18.661Z,0.80
2022-11-23T10:41:02.454Z,0.88
2022-11-23T10:43:38.860Z,0.90
2022-11-23T10:46:41.864Z,0.90
2022-11-23T10:49:17.943Z,0.90
2022-11-23T10:51:57.149Z,0.75
2022-11-23T10:54:32.707Z,0.70
2022-11-23T10:57:03.505Z,0.70
2022-11-23T10:59:35.883Z,0.90
2022-11-23T11:02:28.130Z,0.82
2022-11-23T11:05:16.994Z,0.85
2022-11-23T11:07:45.277Z,0.93
2022-11-23T11:10:36.693Z,0.82
2022-11-23T11:13:06.277Z,1.30
2022-11-23T11:15:42.442Z,1.17
2022-11-23T11:18:20.489Z,0.80
2022-11-23T11:20:51.985Z,1.20
2022-11-23T11:23:22.664Z,0.93
2022-11-23T11:25:55.664Z,0.63
2022-11-23T11:28:28.994Z,0.77
2022-11-23T11:31:05.156Z,1.00
2022-11-23T11:33:42.095Z,0.63
2022-11-23T11:36:16.024Z,0.98
2022-11-23T11:39:15.059Z,1.05
2022-11-23T11:41:40.064Z,0.73
2022-11-23T11:44:11.566Z,0.90
2022-11-23T11:46:45.853Z,1.05
2022-11-23T11:49:22.971Z,1.08
2022-11-23T11:51:58.219Z,0.73
2022-11-23T11:54:36.175Z,1.00
2022-11-23T11:57:11.651Z,1.10
2022-11-23T11:59:43.747Z,0.95
2022-11-23T12:02:25.761Z,0.82
2022-11-23T12:05:12.941Z,1.00
2022-11-23T12:07:47.210Z,0.77
2022-11-23T12:10:20.244Z,1.00
2022-11-23T12:12:49.853Z,0.80
2022-11-23T12:15:47.919Z,0.90
2022-11-23T12:18:27.737Z,0.88
2022-11-23T12:21:04.659Z,0.80
2022-11-23T12:23:48.809Z,0.70
2022-11-23T12:26:27.784Z,1.30
2022-11-23T12:29:38.392Z,0.70
2022-11-23T12:32:15.797Z,0.80
2022-11-23T12:34:58.658Z,0.80
2022-11-23T12:37:41.087Z,0.85
2022-11-23T12:40:31.406Z,1.08
2022-11-23T12:43:03.916Z,0.90
2022-11-23T12:45:47.185Z,1.27
2022-11-23T12:48:28.903Z,1.58
2022-11-23T12:51:10.046Z,0.98
2022-11-23T12:53:54.769Z,1.00
2022-11-23T12:56:45.939Z,0.90
2022-11-23T12:59:15.418Z,1.23
2022-11-23T13:01:48.708Z,1.45
2022-11-23T13:04:46.657Z,1.02
2022-11-23T13:07:44.669Z,1.13
2022-11-23T13:10:42.265Z,1.30
2022-11-23T13:13:34.399Z,1.30
2022-11-23T13:16:30.712Z,1.45
2022-11-23T13:19:23.537Z,1.15
2022-11-23T13:21:52.136Z,1.05
2022-11-23T13:24:28.823Z,1.52
2022-11-23T13:27:44.232Z,1.08
2022-11-23T13:33:38.720Z,1.00
2022-11-23T13:36:18.325Z,1.13
2022-11-23T13:38:48.219Z,1.30
2022-11-23T13:41:59.112Z,1.27
2022-11-23T13:44:32.334Z,0.90
2022-11-23T13:47:22.419Z,1.13
2022-11-23T13:49:52.657Z,1.20
2022-11-23T13:52:28.961Z,1.17
2022-11-23T13:55:21.211Z,1.27
2022-11-23T13:58:23.298Z,1.10
2022-11-23T14:00:54.223Z,1.02
2022-11-23T14:03:51.528Z,1.48
2022-11-23T14:06:25.404Z,1.50
2022-11-23T14:09:02.966Z,1.50
2022-11-23T14:11:36.567Z,1.40
2022-11-23T14:14:08.662Z,1.20
2022-11-23T14:17:14.926Z,2.50
2022-11-23T14:20:04.742Z,1.30
2022-11-23T14:22:41.549Z,1.08
2022-11-23T14:25:26.712Z,1.20
2022-11-23T14:28:07.276Z,1.50
2022-11-23T14:30:59.108Z,0.93
2022-11-23T14:33:38.057Z,1.00
2022-11-23T14:36:21.811Z,4.32
2022-11-23T14:39:24.739Z,1.17
2022-11-23T14:41:56.349Z,1.42
2022-11-23T14:44:27.802Z,1.27
2022-11-23T14:47:03.797Z,1.60
2022-11-23T14:49:33.756Z,1.80
2022-11-23T14:52:04.724Z,1.10
2022-11-23T14:54:33.854Z,1.25
2022-11-23T14:57:05.016Z,1.58
2022-11-23T14:59:36.957Z,1.20
2022-11-23T15:02:14.098Z,1.42
2022-11-23T15:05:02.655Z,1.17
2022-11-23T15:07:46.519Z,1.13
2022-11-23T15:10:39.979Z,1.48
2022-11-23T15:13:21.762Z,1.10
2022-11-23T15:15:53.593Z,1.05
2022-11-23T15:18:33.728Z,0.93
2022-11-23T15:21:08.188Z,1.90
2022-11-23T15:23:38.705Z,1.10
2022-11-23T15:26:28.624Z,1.50
2022-11-23T15:29:02.148Z,1.25
2022-11-23T15:31:34.071Z,2.08
2022-11-23T15:34:06.641Z,1.27
2022-11-23T15:36:38.932Z,1.50
2022-11-23T15:39:09.370Z,1.27
2022-11-23T15:41:38.433Z,1.77
2022-11-23T15:44:19.370Z,1.50
2022-11-23T15:46:50.314Z,1.30
2022-11-23T15:49:20.966Z,1.23
2022-11-23T15:51:52.633Z,1.23
2022-11-23T15:54:26.018Z,1.23
2022-11-23T15:56:58.533Z,1.88
2022-11-23T15:59:32.809Z,1.45
2022-11-23T16:02:03.233Z,2.30
2022-11-23T16:04:36.683Z,1.38
2022-11-23T16:07:20.437Z,1.67
2022-11-23T16:09:52.186Z,1.80
2022-11-23T16:12:27.632Z,1.80
2022-11-23T16:14:58.873Z,1.90
2022-11-23T16:17:28.818Z,1.52
2022-11-23T16:19:59.277Z,1.70
2022-11-23T16:25:08.448Z,1.48
2022-11-23T16:27:37.285Z,2.25
2022-11-23T16:30:06.172Z,1.50
2022-11-23T16:32:35.061Z,1.73
2022-11-23T16:35:16.807Z,1.65
2022-11-23T16:37:47.584Z,1.90
2022-11-23T16:40:16.043Z,1.38
2022-11-23T16:42:45.374Z,1.60
2022-11-23T16:45:14.500Z,1.60
2022-11-23T16:47:54.619Z,1.83
2022-11-23T16:50:24.548Z,1.90
2022-11-23T16:55:22.657Z,1.92
2022-11-23T16:57:51.160Z,1.65
2022-11-23T17:00:22.319Z,1.45
2022-11-23T17:02:51.327Z,1.52
2022-11-23T17:05:23.830Z,1.58
2022-11-23T17:07:54.143Z,1.88
2022-11-23T17:12:53.370Z,1.60
2022-11-23T17:15:24.207Z,1.80
2022-11-23T17:17:52.382Z,1.80
2022-11-23T17:20:21.055Z,1.52
2022-11-23T17:22:51.827Z,1.75
2022-11-23T17:25:22.257Z,1.58
2022-11-23T17:30:20.788Z,1.10
2022-11-23T17:32:50.104Z,1.48
2022-11-23T17:35:18.275Z,1.60
2022-11-23T17:37:47.494Z,1.80
2022-11-23T17:40:17.244Z,1.10
2022-11-23T17:42:47.233Z,1.27
2022-11-23T17:45:16.515Z,1.23
2022-11-23T17:47:46.422Z,1.23
2022-11-23T17:52:46.349Z,1.77
2022-11-23T17:55:15.031Z,0.90
2022-11-23T17:57:44.293Z,1.98
2022-11-23T18:00:18.372Z,1.25
2022-11-23T18:02:47.755Z,1.25
2022-11-23T18:05:21.170Z,1.02
2022-11-23T18:07:51.576Z,1.00
2022-11-23T18:10:19.656Z,1.47
2022-11-23T18:12:47.903Z,1.10
2022-11-23T18:15:17.467Z,1.13
2022-11-23T18:17:45.548Z,1.50
2022-11-23T18:20:13.674Z,0.80
2022-11-23T18:22:42.629Z,1.55
2022-11-23T18:25:10.969Z,1.35
2022-11-23T18:27:39.442Z,1.52
2022-11-23T18:30:08.941Z,1.48
2022-11-23T18:32:39.002Z,1.20
2022-11-23T18:35:09.491Z,1.40
2022-11-23T18:40:06.366Z,1.50
2022-11-23T18:42:35.265Z,1.63
2022-11-23T18:45:03.196Z,1.90
2022-11-23T18:47:32.115Z,1.30
2022-11-23T18:50:06.196Z,1.40
2022-11-23T18:52:35.718Z,1.48
2022-11-23T18:55:04.129Z,1.45
2022-11-23T18:57:32.599Z,1.50
2022-11-23T19:00:01.639Z,1.75
2022-11-23T19:02:30.190Z,1.55
2022-11-23T19:04:58.306Z,1.40
2022-11-23T19:07:29.276Z,1.30
2022-11-23T19:09:57.316Z,2.05
2022-11-23T19:12:25.375Z,1.58
2022-11-23T19:14:54.338Z,1.35
2022-11-23T19:17:22.377Z,1.77
2022-11-23T19:19:50.829Z,1.60
2022-11-23T19:22:19.236Z,1.60
2022-11-23T19:24:48.652Z,1.50
2022-11-23T19:27:19.075Z,1.77
2022-11-23T19:32:14.923Z,1.48
2022-11-23T19:34:43.984Z,1.90
2022-11-23T19:37:11.915Z,2.00
2022-11-23T19:39:40.506Z,2.15
2022-11-23T19:42:09.883Z,2.08
2022-11-23T19:44:38.259Z,2.30
2022-11-23T19:47:13.754Z,2.05
2022-11-23T19:49:43.985Z,2.45
2022-11-23T19:52:12.508Z,2.45
2022-11-23T19:54:40.583Z,2.30
2022-11-23T19:57:10.074Z,1.65
2022-11-23T20:02:06.387Z,2.05
2022-11-23T20:04:36.809Z,2.35
2022-11-23T20:07:06.027Z,2.53
2022-11-23T20:09:34.223Z,2.08
2022-11-23T20:12:02.907Z,2.15
2022-11-23T20:14:32.895Z,3.53
2022-11-23T20:19:29.691Z,2.25
2022-11-23T20:21:59.081Z,2.45
2022-11-23T20:24:27.183Z,2.20
2022-11-23T20:26:55.794Z,2.67
2022-11-23T20:29:24.305Z,2.55
2022-11-23T20:31:53.901Z,2.63
2022-11-23T20:34:26.281Z,2.10
2022-11-23T20:36:56.247Z,1.60
2022-11-23T20:39:24.315Z,2.15
2022-11-23T20:41:52.441Z,2.17
2022-11-23T20:44:21.054Z,1.77
2022-11-23T20:47:04.819Z,2.17
2022-11-23T20:49:35.681Z,2.50
2022-11-23T20:52:04.445Z,1.85
2022-11-23T20:54:33.393Z,2.25
2022-11-23T20:57:01.680Z,2.20
2022-11-23T20:59:30.288Z,1.95
2022-11-23T21:01:59.199Z,1.93
2022-11-23T21:04:27.248Z,1.80
2022-11-23T21:06:57.098Z,1.77
2022-11-23T21:09:25.023Z,2.28
2022-11-23T21:12:11.138Z,1.80
2022-11-23T21:14:40.581Z,2.53
2022-11-23T21:17:09.100Z,1.90
2022-11-23T21:19:42.219Z,2.28
2022-11-23T21:22:13.078Z,1.80
2022-11-23T21:24:42.960Z,2.00
2022-11-23T21:27:14.005Z,1.83
2022-11-23T21:29:44.752Z,1.80
2022-11-23T21:32:14.776Z,1.90
2022-11-23T21:34:44.154Z,1.60
2022-11-23T21:37:14.084Z,1.70
2022-11-23T21:39:44.608Z,1.90
2022-11-23T21:42:17.574Z,1.80
2022-11-23T21:44:45.522Z,1.60
2022-11-23T21:47:14.173Z,2.28
2022-11-23T21:49:42.408Z,2.20
2022-11-23T21:52:10.554Z,2.05
2022-11-23T21:54:44.380Z,1.67
2022-11-23T21:57:16.533Z,2.05
2022-11-23T21:59:44.684Z,1.90
2022-11-23T22:02:14.150Z,1.67
2022-11-23T22:04:42.450Z,1.27
2022-11-23T22:07:11.136Z,2.10
2022-11-23T22:09:41.030Z,1.50
2022-11-23T22:14:37.564Z,2.03
2022-11-23T22:17:10.315Z,1.48
2022-11-23T22:20:49.397Z,1.58
2022-11-23T22:23:17.631Z,1.35
2022-11-23T22:25:48.324Z,1.35
2022-11-23T22:28:17.478Z,1.67
2022-11-23T22:30:53.728Z,1.50
2022-11-23T22:33:22.736Z,1.60
2022-11-23T22:35:51.279Z,1.70
2022-11-23T22:38:19.981Z,1.87
2022-11-23T22:40:50.029Z,2.00
2022-11-23T22:43:18.208Z,1.70
2022-11-23T22:45:46.219Z,1.52
2022-11-23T22:48:15.207Z,1.90
2022-11-23T22:50:43.926Z,1.80
2022-11-23T22:53:12.982Z,1.85
2022-11-23T22:55:41.652Z,1.90
2022-11-23T22:58:11.111Z,1.95
2022-11-23T23:00:39.113Z,1.75
2022-11-23T23:03:08.148Z,1.80
2022-11-23T23:05:36.414Z,1.85
2022-11-23T23:08:05.205Z,1.73
2022-11-23T23:10:33.618Z,1.70
2022-11-23T23:13:01.680Z,2.58
2022-11-23T23:15:31.751Z,1.80
2022-11-23T23:17:59.934Z,2.08
2022-11-23T23:20:27.957Z,1.92
2022-11-23T23:22:58.621Z,1.70
2022-11-23T23:25:26.554Z,2.50
2022-11-23T23:27:55.391Z,1.90
2022-11-23T23:30:23.405Z,1.60
2022-11-23T23:32:57.246Z,2.30
2022-11-23T23:35:25.397Z,2.20
2022-11-23T23:37:53.562Z,2.25
2022-11-23T23:40:22.521Z,2.33
2022-11-23T23:42:50.472Z,2.55
2022-11-23T23:45:18.909Z,2.40
2022-11-23T23:47:47.779Z,2.60
2022-11-23T23:50:17.976Z,2.83
2022-11-23T23:52:46.340Z,2.40
2022-11-23T23:55:14.723Z,2.80
2022-11-23T23:57:42.664Z,2.22
